Terminal Aerodrome Forecast
Issued by NWS Tampa Bay Area, FL

Home | Current Version | Previous Version | Text Only | Print | Product List | Glossary On
Versions: 1 2 3 4 5 6 7 8 9 10 11 12
000
FTUS42 KTBW 202331
TAFFMY
TAF
KFMY 202331Z 2100/2124 05005KT P6SM SCT040 OVC120
     FM211000 07004KT 6SM BR FEW030 BKN120
     FM211400 06007KT P6SM SCT030 SCT110
     FM211800 09009KT P6SM SCT045 SCT120=

USA.gov is the U.S. government's official web portal to all federal, state and local government web resources and services.